Time;durP1;ratioP1;P1;durP2;ratioP2;P2;SDS_P1;SDS_P2;PMS_P1;PMS_P2;Temp;Humidity;BMP_temperature;BMP_pressure;BME280_temperature;BME280_humidity;BME280_pressure;Samples;Min_cycle;Max_cycle;Signal;HPM_P1;HPM_P2
2022/04/18 00:02:18;;;;;;;328.67;300.48;;;;;;;18.25;27.79;93906.41;5050394;28;20064;-69
2022/04/18 00:04:43;;;;;;;333.08;304.05;;;;;;;18.26;28.08;93911.38;5038847;28;20044;-69
2022/04/18 00:07:10;;;;;;;331.20;303.17;;;;;;;18.26;27.94;93910.63;5039611;28;20040;-70
2022/04/18 00:09:38;;;;;;;314.50;287.20;;;;;;;18.24;27.91;93905.66;5041979;28;20049;-70
2022/04/18 00:12:07;;;;;;;332.27;302.88;;;;;;;18.24;28.05;93900.25;5027225;28;20052;-70
2022/04/18 00:14:33;;;;;;;317.92;290.30;;;;;;;18.23;28.20;93898.00;5040231;28;20044;-70
2022/04/18 00:16:59;;;;;;;312.55;285.15;;;;;;;18.23;27.88;93909.56;5053135;28;20047;-69
2022/04/18 00:19:25;;;;;;;329.23;300.48;;;;;;;18.22;28.04;93904.63;5026485;28;20055;-70
2022/04/18 00:21:51;;;;;;;321.67;294.00;;;;;;;18.21;27.99;93895.75;5046725;28;20037;-69
2022/04/18 00:24:19;;;;;;;336.45;307.58;;;;;;;18.21;27.95;93890.34;5042845;28;20148;-70
2022/04/18 00:26:45;;;;;;;322.77;295.00;;;;;;;18.22;27.82;93891.84;5049966;28;20064;-70
2022/04/18 00:29:11;;;;;;;326.33;298.27;;;;;;;18.22;27.86;93889.13;5046867;28;20056;-70
2022/04/18 00:31:36;;;;;;;320.33;292.65;;;;;;;18.22;28.12;93891.09;5043353;28;20827;-69
2022/04/18 00:34:04;;;;;;;322.77;295.25;;;;;;;18.22;27.89;93896.50;5047950;28;20040;-69
2022/04/18 00:36:30;;;;;;;325.42;297.20;;;;;;;18.20;27.86;93891.53;5045529;28;20087;-70
2022/04/18 00:38:55;;;;;;;323.80;295.50;;;;;;;18.20;27.95;93886.13;5042640;28;20599;-70
2022/04/18 00:41:21;;;;;;;314.48;286.83;;;;;;;18.18;27.92;93882.41;5027696;28;20467;-70
2022/04/18 00:43:49;;;;;;;327.13;298.60;;;;;;;18.17;28.08;93880.91;5046564;28;20607;-70
2022/04/18 00:46:16;;;;;;;315.08;288.13;;;;;;;18.16;27.92;93880.16;5057117;28;20058;-70
2022/04/18 00:48:43;;;;;;;315.92;289.13;;;;;;;18.15;28.13;93881.34;5065086;28;20063;-70
2022/04/18 00:51:13;;;;;;;320.70;293.00;;;;;;;18.15;27.84;93873.25;5064803;28;20056;-70
2022/04/18 00:53:41;;;;;;;323.97;295.73;;;;;;;18.15;27.95;93873.25;5044532;28;20413;-69
2022/04/18 00:56:10;;;;;;;334.50;304.88;;;;;;;18.15;27.84;93873.25;5044005;28;20378;-69
2022/04/18 00:58:36;;;;;;;326.45;297.92;;;;;;;18.14;27.96;93869.03;5041598;28;20068;-70
2022/04/18 01:01:03;;;;;;;336.77;306.67;;;;;;;18.15;28.06;93867.84;5045357;28;20523;-70
2022/04/18 01:03:30;;;;;;;320.67;293.08;;;;;;;18.15;27.91;93864.38;5042889;28;20690;-69
2022/04/18 01:05:59;;;;;;;333.75;304.20;;;;;;;18.14;28.15;93858.22;5044593;28;20066;-70
2022/04/18 01:08:25;;;;;;;329.80;300.98;;;;;;;18.14;28.06;93860.91;5042854;28;20052;-70
2022/04/18 01:10:52;;;;;;;317.75;290.02;;;;;;;18.14;28.19;93858.22;5045197;28;20121;-69
2022/04/18 01:13:18;;;;;;;326.05;297.58;;;;;;;18.14;28.17;93860.16;5044232;28;20755;-70
2022/04/18 01:15:43;;;;;;;330.73;301.90;;;;;;;18.14;28.15;93849.34;5040493;28;20080;-70
2022/04/18 01:18:09;;;;;;;337.83;307.63;;;;;;;18.13;28.13;93851.28;5045004;28;20087;-69
2022/04/18 01:20:35;;;;;;;319.50;292.17;;;;;;;18.14;27.94;93854.75;5044258;28;20052;-69
2022/04/18 01:23:05;;;;;;;326.85;297.98;;;;;;;18.13;28.36;93851.28;5040747;28;20040;-70
2022/04/18 01:30:59;;;;;;;323.75;295.95;;;;;;;18.13;27.85;93853.25;5040231;28;20060;-69
2022/04/18 01:33:24;;;;;;;319.83;292.48;;;;;;;18.12;28.08;93846.34;5042643;28;20712;-69
2022/04/18 01:35:50;;;;;;;306.15;279.73;;;;;;;18.11;28.01;93848.31;5043187;28;20051;-70
2022/04/18 01:38:16;;;;;;;314.58;286.60;;;;;;;18.12;28.11;93843.63;5053752;28;20126;-70
2022/04/18 01:40:41;;;;;;;308.58;282.30;;;;;;;18.12;28.01;93838.97;5041485;28;20421;-70
2022/04/18 01:43:07;;;;;;;311.90;284.77;;;;;;;18.10;28.09;93839.44;5058778;28;20080;-70
2022/04/18 01:45:34;;;;;;;314.20;287.85;;;;;;;18.09;28.11;93837.19;5060332;28;20051;-70
2022/04/18 01:48:00;;;;;;;342.42;312.30;;;;;;;18.11;28.14;93853.72;5049810;28;20193;-70
2022/04/18 01:50:26;;;;;;;323.17;295.05;;;;;;;18.09;28.11;93846.06;5046151;28;20484;-70
2022/04/18 01:52:51;;;;;;;332.60;303.67;;;;;;;18.10;28.15;93842.13;5050600;28;20449;-70
2022/04/18 01:55:17;;;;;;;322.25;294.02;;;;;;;18.08;28.11;93839.13;5040743;28;20044;-69
2022/04/18 01:57:42;;;;;;;328.95;300.40;;;;;;;18.09;27.97;93835.22;5042969;28;20476;-70
2022/04/18 02:00:09;;;;;;;332.05;302.75;;;;;;;18.12;28.39;93835.50;5043014;28;20036;-70
2022/04/18 02:02:34;;;;;;;330.05;301.42;;;;;;;18.12;28.10;93825.44;5044592;28;20193;-70
2022/04/18 02:05:02;;;;;;;322.83;294.88;;;;;;;18.09;28.08;93824.41;5043677;28;20578;-70
2022/04/18 02:07:31;;;;;;;309.30;282.83;;;;;;;18.12;28.08;93830.84;5052170;28;20430;-70
2022/04/18 02:09:56;;;;;;;326.90;298.02;;;;;;;18.12;28.10;93832.81;5048841;28;20127;-70
2022/04/18 02:12:21;;;;;;;320.67;292.80;;;;;;;18.10;28.12;93828.59;5042496;28;20044;-70
2022/04/18 02:14:47;;;;;;;335.75;306.73;;;;;;;18.09;28.29;93824.41;5043082;28;20450;-70
2022/04/18 02:17:13;;;;;;;335.70;306.50;;;;;;;18.08;28.11;93822.91;5042617;28;20740;-70
2022/04/18 02:19:38;;;;;;;314.05;286.45;;;;;;;18.08;28.23;93809.38;5043021;28;22754;-70
2022/04/18 02:22:05;;;;;;;322.23;294.50;;;;;;;18.09;27.88;93810.13;5041815;28;20060;-70
2022/04/18 02:24:31;;;;;;;321.75;292.58;;;;;;;18.12;28.15;93806.50;5042640;28;20062;-70
2022/04/18 02:26:57;;;;;;;323.70;295.02;;;;;;;18.14;28.00;93808.75;5042485;28;20489;-70
2022/04/18 02:29:23;;;;;;;334.10;304.92;;;;;;;18.15;28.13;93802.13;5043756;28;20049;-69
2022/04/18 02:34:33;;;;;;;310.58;283.70;;;;;;;18.13;28.13;93807.25;5040192;28;20768;-70
2022/04/18 02:36:59;;;;;;;321.83;293.70;;;;;;;18.13;28.20;93783.63;5042841;28;20044;-71
2022/04/18 02:39:24;;;;;;;322.45;294.17;;;;;;;18.14;28.14;93787.09;5023304;28;20056;-70
2022/04/18 02:41:50;;;;;;;320.45;292.75;;;;;;;18.13;28.14;93783.63;5043610;28;20139;-70
2022/04/18 02:44:15;;;;;;;325.02;296.08;;;;;;;18.09;28.11;93781.09;5023391;28;20512;-70
2022/04/18 02:46:41;;;;;;;319.15;291.35;;;;;;;18.09;28.20;93783.81;5041338;28;20155;-70
2022/04/18 02:49:07;;;;;;;339.23;309.67;;;;;;;18.08;27.97;93776.91;5041748;28;20037;-70
2022/04/18 02:51:32;;;;;;;321.75;293.65;;;;;;;18.09;28.28;93769.53;5026126;28;20053;-69
2022/04/18 02:53:59;;;;;;;323.15;295.27;;;;;;;18.08;28.08;93776.91;5032383;28;20316;-70
2022/04/18 02:56:25;;;;;;;326.50;298.02;;;;;;;18.08;28.37;93779.59;5042029;28;20051;-69
2022/04/18 02:58:50;;;;;;;310.20;282.80;;;;;;;18.09;28.03;93778.41;5041624;28;20032;-70
2022/04/18 03:01:16;;;;;;;330.42;301.58;;;;;;;18.08;28.19;93770.72;5038667;28;20045;-70
2022/04/18 03:03:42;;;;;;;311.58;284.50;;;;;;;18.09;28.16;93769.53;5046072;28;20094;-69
2022/04/18 03:06:08;;;;;;;330.55;301.52;;;;;;;18.09;28.22;93758.69;5045773;28;20446;-69
2022/04/18 03:08:33;;;;;;;324.27;296.90;;;;;;;18.09;28.34;93764.13;5024680;28;20067;-70
2022/04/18 03:11:08;;;;;;;327.73;298.23;;;;;;;18.08;28.15;93762.63;5043710;28;20052;-70
2022/04/18 03:13:36;;;;;;;328.55;299.55;;;;;;;18.08;28.02;93763.38;5045723;28;20060;-70
2022/04/18 03:16:03;;;;;;;328.50;299.35;;;;;;;18.09;28.10;93770.28;5039886;28;20064;-69
2022/04/18 03:18:29;;;;;;;328.30;299.52;;;;;;;18.08;28.35;93759.91;5041958;28;20070;-70
2022/04/18 03:20:54;;;;;;;316.83;288.83;;;;;;;18.07;28.29;93758.41;5043903;28;20042;-70
2022/04/18 03:23:20;;;;;;;322.23;293.55;;;;;;;18.05;28.41;93750.75;5040548;28;20103;-70
2022/04/18 03:25:46;;;;;;;321.35;292.85;;;;;;;18.07;28.29;93755.72;5041709;28;20828;-69
2022/04/18 03:28:12;;;;;;;337.70;307.80;;;;;;;18.05;28.30;93750.75;5042074;28;21164;-69
2022/04/18 03:30:38;;;;;;;314.83;287.10;;;;;;;18.05;28.28;93744.59;5043491;28;20047;-69
2022/04/18 03:33:04;;;;;;;326.85;297.73;;;;;;;18.03;27.98;93741.59;5039247;28;20149;-69
2022/04/18 03:35:30;;;;;;;305.02;278.17;;;;;;;18.03;28.20;93739.63;5043716;28;20481;-70
2022/04/18 03:40:42;;;;;;;320.98;292.40;;;;;;;18.02;28.20;93738.16;5039018;28;20064;-69
2022/04/18 03:43:08;;;;;;;317.35;289.45;;;;;;;18.01;28.30;93733.94;5041386;28;20466;-70
2022/04/18 03:45:33;;;;;;;314.35;286.25;;;;;;;18.01;28.36;93731.22;5040292;28;20056;-69
2022/04/18 03:47:59;;;;;;;320.38;291.98;;;;;;;18.01;28.24;93731.22;5041238;28;20163;-69
2022/04/18 03:50:25;;;;;;;319.50;291.65;;;;;;;18.01;28.33;93733.19;5017705;28;21084;-70
2022/04/18 03:53:02;;;;;;;325.27;296.42;;;;;;;18.00;28.34;93729.75;5011273;28;20452;-70
2022/04/18 03:55:29;;;;;;;314.35;286.00;;;;;;;18.01;28.30;93730.47;5044329;28;20123;-70
2022/04/18 03:57:55;;;;;;;320.35;292.98;;;;;;;18.02;28.14;93724.63;5047987;28;20143;-70
2022/04/18 04:00:20;;;;;;;325.50;296.92;;;;;;;18.04;28.30;93733.03;5042859;28;20093;-70
2022/04/18 04:02:46;;;;;;;328.75;299.95;;;;;;;18.04;28.30;93729.56;5044292;28;20040;-70
2022/04/18 04:05:11;;;;;;;318.73;291.13;;;;;;;18.06;28.56;93735.25;5036928;28;20605;-71
2022/04/18 04:07:37;;;;;;;318.58;290.80;;;;;;;18.04;28.46;93730.31;5024991;28;20082;-70
2022/04/18 04:10:03;;;;;;;308.85;282.10;;;;;;;18.06;28.25;93719.78;5044548;28;20668;-70
2022/04/18 04:12:30;;;;;;;326.30;298.00;;;;;;;18.04;28.37;93719.50;5029970;28;20595;-70
2022/04/18 04:14:55;;;;;;;321.90;293.77;;;;;;;18.05;28.41;93729.09;5045507;28;20041;-70
2022/04/18 04:17:23;;;;;;;325.35;297.00;;;;;;;18.07;28.26;93729.41;5043298;28;20052;-70
2022/04/18 04:19:50;;;;;;;326.00;298.08;;;;;;;18.07;28.35;93718.56;5026987;28;20036;-70
2022/04/18 04:22:15;;;;;;;335.60;306.52;;;;;;;18.09;28.49;93721.56;5028130;28;20052;-70
2022/04/18 04:24:41;;;;;;;327.10;299.27;;;;;;;18.12;28.36;93714.47;5045478;28;20897;-70
2022/04/18 04:27:07;;;;;;;321.67;294.23;;;;;;;18.14;28.21;93716.72;5053888;28;20044;-70
2022/04/18 04:29:32;;;;;;;321.60;293.88;;;;;;;18.15;28.33;93720.94;5052156;28;20041;-71
2022/04/18 04:31:59;;;;;;;326.67;298.77;;;;;;;18.17;28.24;93715.81;5027768;28;20053;-70
2022/04/18 04:34:24;;;;;;;337.10;307.50;;;;;;;18.18;28.06;93726.16;5045227;28;20044;-70
2022/04/18 04:36:50;;;;;;;315.58;289.10;;;;;;;18.20;28.13;93709.47;5052521;28;20409;-70
2022/04/18 04:39:17;;;;;;;334.55;305.42;;;;;;;18.22;28.17;93712.44;5028863;28;20598;-71
2022/04/18 04:41:42;;;;;;;319.60;292.55;;;;;;;18.25;28.50;93711.50;5032998;28;20052;-70
2022/04/18 04:44:08;;;;;;;332.42;304.33;;;;;;;18.26;28.40;93707.59;5045968;28;20036;-70
2022/04/18 04:46:35;;;;;;;324.73;297.67;;;;;;;18.29;28.22;93703.97;5033898;28;20037;-70
2022/04/18 04:49:00;;;;;;;329.95;301.50;;;;;;;18.30;28.22;93711.63;5048518;28;20682;-70
2022/04/18 04:51:26;;;;;;;323.00;296.00;;;;;;;18.32;28.34;93709.19;5048978;28;20068;-70
2022/04/18 04:53:52;;;;;;;333.13;305.30;;;;;;;18.35;28.24;93707.53;5043925;28;20036;-70
2022/04/18 04:56:17;;;;;;;344.08;315.15;;;;;;;18.36;28.14;93707.06;5046241;28;20048;-70
2022/04/18 04:58:43;;;;;;;337.27;308.85;;;;;;;18.37;28.12;93713.97;5030659;28;20117;-70
2022/04/18 05:01:09;;;;;;;329.77;302.40;;;;;;;18.40;28.10;93715.00;5047743;28;20615;-71
2022/04/18 05:03:35;;;;;;;334.77;306.75;;;;;;;18.41;28.22;93711.84;5047008;28;20047;-72
2022/04/18 05:06:01;;;;;;;335.92;308.15;;;;;;;18.42;28.20;93710.63;5029186;28;20231;-72
2022/04/18 05:08:26;;;;;;;332.88;304.92;;;;;;;18.46;28.19;93712.41;5042672;28;20404;-72
2022/04/18 05:10:59;;;;;;;336.23;308.13;;;;;;;18.46;28.00;93710.47;5048776;28;20041;-72
2022/04/18 05:13:25;;;;;;;347.55;318.77;;;;;;;18.49;28.10;93711.50;5043937;28;20045;-72
2022/04/18 05:15:51;;;;;;;335.45;306.92;;;;;;;18.49;28.17;93712.25;5044216;28;20044;-72
2022/04/18 05:18:16;;;;;;;352.13;322.13;;;;;;;18.50;28.01;93707.56;5042148;28;20060;-72
2022/04/18 05:20:42;;;;;;;328.40;301.20;;;;;;;18.52;28.01;93714.03;5030238;28;20045;-72
2022/04/18 05:23:07;;;;;;;345.35;317.13;;;;;;;18.52;28.19;93714.03;5038270;28;20075;-72
2022/04/18 05:25:33;;;;;;;340.48;313.30;;;;;;;18.53;27.88;93720.94;5028346;28;20055;-71
2022/04/18 05:27:58;;;;;;;333.77;306.80;;;;;;;18.54;27.62;93722.44;5041281;28;20421;-67
2022/04/18 05:30:24;;;;;;;325.38;298.20;;;;;;;18.55;27.79;93718.50;5051805;28;20051;-68
2022/04/18 05:32:49;;;;;;;332.77;305.25;;;;;;;18.57;27.94;93723.47;5056743;28;20179;-70
2022/04/18 05:35:15;;;;;;;337.08;310.15;;;;;;;18.58;27.77;93719.53;5057547;28;20044;-69
2022/04/18 05:37:41;;;;;;;332.05;305.15;;;;;;;18.57;27.51;93731.59;5058691;28;20041;-71
2022/04/18 05:40:08;;;;;;;338.50;310.77;;;;;;;18.58;27.75;93728.41;5035636;28;20052;-72
2022/04/18 05:42:34;;;;;;;325.63;299.17;;;;;;;18.58;27.79;93727.66;5056172;28;20130;-72
2022/04/18 05:45:00;;;;;;;329.83;303.33;;;;;;;18.55;27.86;93726.63;5040960;28;20044;-71
2022/04/18 05:47:25;;;;;;;344.13;316.13;;;;;;;18.57;27.75;93726.16;5056359;28;20102;-70
2022/04/18 05:49:51;;;;;;;333.98;306.60;;;;;;;18.58;27.92;93727.66;5052594;28;20044;-72
2022/04/18 05:52:16;;;;;;;336.73;308.90;;;;;;;18.58;27.86;93733.09;5057189;28;20113;-74
2022/04/18 05:54:42;;;;;;;333.52;306.45;;;;;;;18.58;27.74;93731.13;5055787;28;20413;-79
2022/04/18 05:57:08;;;;;;;326.17;299.52;;;;;;;18.57;27.77;93732.34;5037442;28;20041;-74
2022/04/18 05:59:33;;;;;;;333.48;306.23;;;;;;;18.54;27.81;93727.84;5056696;28;20071;-75
2022/04/18 06:01:59;;;;;;;325.75;298.92;;;;;;;18.55;27.83;93734.00;5052622;28;20054;-72
2022/04/18 06:04:24;;;;;;;330.15;303.15;;;;;;;18.55;27.87;93728.59;5059650;28;20630;-74
2022/04/18 06:06:50;;;;;;;335.63;308.15;;;;;;;18.55;27.80;93728.59;5058594;28;20079;-79
2022/04/18 06:09:16;;;;;;;345.02;316.95;;;;;;;18.54;27.80;93730.56;5058240;28;20774;-74
2022/04/18 06:11:41;;;;;;;334.33;307.23;;;;;;;18.54;28.02;93733.25;5054584;28;20049;-76
2022/04/18 06:14:08;;;;;;;331.75;304.92;;;;;;;18.55;27.94;93734.75;5042554;28;20052;-73
2022/04/18 06:16:33;;;;;;;337.83;310.50;;;;;;;18.56;27.93;93733.53;5053729;28;20611;-74
2022/04/18 06:18:59;;;;;;;331.15;304.15;;;;;;;18.59;27.93;93734.59;5055034;28;20032;-73
2022/04/18 06:21:25;;;;;;;336.13;308.73;;;;;;;18.59;27.82;93734.59;5057694;28;20121;-80
2022/04/18 06:23:51;;;;;;;327.77;300.65;;;;;;;18.56;28.02;93736.25;5054824;28;20366;-73
2022/04/18 06:26:19;;;;;;;328.08;301.13;;;;;;;18.57;27.99;93729.63;5056637;28;20099;-69
2022/04/18 06:28:45;;;;;;;326.05;299.80;;;;;;;18.58;27.81;93733.84;5049866;28;20045;-71
2022/04/18 06:31:11;;;;;;;334.23;307.23;;;;;;;18.59;27.93;93729.91;5054117;28;20056;-70
2022/04/18 06:33:36;;;;;;;331.33;304.25;;;;;;;18.59;28.06;93731.88;5057547;28;20394;-72
2022/04/18 06:36:03;;;;;;;318.50;292.20;;;;;;;18.59;27.88;93729.16;5056173;28;20055;-70
2022/04/18 06:38:31;;;;;;;335.77;308.83;;;;;;;18.58;27.92;93730.38;5052333;28;20716;-74
2022/04/18 06:41:01;;;;;;;323.42;296.67;;;;;;;18.58;27.87;93728.41;5055613;28;20124;-73
2022/04/18 06:43:27;;;;;;;;;;;;;;;18.60;27.84;93727.94;5063015;28;20094;-75
2022/04/18 06:45:53;;;;;;;317.40;290.92;;;;;;;18.61;27.90;93730.22;5055806;28;20000;-73
2022/04/18 06:48:19;;;;;;;339.42;311.05;;;;;;;18.61;28.09;93740.31;5056860;28;20725;-73
2022/04/18 06:50:45;;;;;;;314.75;289.40;;;;;;;18.60;28.01;93739.56;5057534;28;20037;-74
2022/04/18 06:53:12;;;;;;;328.25;300.83;;;;;;;18.59;28.01;93726.47;5054633;28;20051;-73
2022/04/18 06:58:23;;;;;;;341.58;312.73;;;;;;;18.58;27.91;93725.72;5055265;28;20513;-73
2022/04/18 07:00:48;;;;;;;327.55;301.33;;;;;;;18.56;27.85;93725.44;5052460;28;20041;-75
2022/04/18 07:03:14;;;;;;;332.30;305.45;;;;;;;18.54;27.83;93722.44;5039367;28;20048;-76
2022/04/18 07:08:38;;;;;;;332.05;304.63;;;;;;;18.50;27.64;93721.09;5035707;28;20055;-70
2022/04/18 07:11:04;;;;;;;335.88;308.20;;;;;;;18.48;27.82;93718.13;5036337;28;20037;-71
2022/04/18 07:13:30;;;;;;;332.00;304.23;;;;;;;18.47;27.61;93717.38;5051704;28;20436;-73
2022/04/18 07:15:55;;;;;;;337.38;308.88;;;;;;;18.48;27.90;93713.44;5044043;28;20505;-72
2022/04/18 07:18:21;;;;;;;336.98;308.75;;;;;;;18.49;27.98;93714.94;5045212;28;20479;-73
2022/04/18 07:20:47;;;;;;;331.45;303.98;;;;;;;18.49;28.03;93714.19;5048260;28;20041;-70
2022/04/18 07:23:12;;;;;;;327.92;301.23;;;;;;;18.50;27.86;93713.00;5056002;28;20044;-71
2022/04/18 07:25:38;;;;;;;329.98;302.80;;;;;;;18.49;27.79;93706.81;5053202;28;20144;-71
2022/04/18 07:28:04;;;;;;;331.23;303.67;;;;;;;18.49;27.79;93709.53;5036308;28;20052;-70
2022/04/18 07:30:30;;;;;;;328.42;301.20;;;;;;;18.49;27.90;93712.25;5056713;28;20720;-70
2022/04/18 07:32:56;;;;;;;338.50;310.50;;;;;;;18.49;27.83;93716.91;5052548;28;20082;-70
2022/04/18 07:35:22;;;;;;;330.50;303.25;;;;;;;18.48;27.82;93712.69;5055100;28;20036;-67
2022/04/18 07:40:32;;;;;;;348.17;319.00;;;;;;;17.95;28.61;93705.25;5046436;28;20056;-68
2022/04/18 07:42:57;;;;;;;340.60;311.40;;;;;;;18.17;28.25;93703.03;5044681;28;20048;-69
2022/04/18 07:45:23;;;;;;;342.73;312.67;;;;;;;18.37;27.92;93707.81;5037821;28;20049;-67
2022/04/18 07:47:52;;;;;;;340.75;312.05;;;;;;;18.42;27.90;93704.47;5042237;28;20044;-67
2022/04/18 07:50:18;;;;;;;340.77;312.45;;;;;;;18.43;28.00;93706.72;5042714;28;20052;-68
2022/04/18 07:52:46;;;;;;;342.65;314.65;;;;;;;18.46;27.64;93707.75;5025382;28;20056;-67
2022/04/18 07:55:12;;;;;;;345.50;317.73;;;;;;;18.46;27.72;93704.28;5056266;28;20521;-67
2022/04/18 07:57:40;;;;;;;333.40;306.25;;;;;;;18.54;27.70;93708.88;5061525;28;20822;-67
2022/04/18 08:00:06;;;;;;;335.30;307.77;;;;;;;18.55;27.95;93706.94;5058461;28;20490;-67
2022/04/18 08:02:33;;;;;;;329.05;302.50;;;;;;;18.53;27.68;93706.66;5059789;28;20519;-68
2022/04/18 08:04:59;;;;;;;331.45;304.35;;;;;;;18.50;27.63;93707.56;5061199;28;20056;-67
2022/04/18 08:07:24;;;;;;;330.23;303.35;;;;;;;18.43;27.49;93704.00;5062337;28;20059;-67
2022/04/18 08:09:50;;;;;;;336.92;309.77;;;;;;;18.41;27.34;93702.97;5060749;28;20040;-68
2022/04/18 08:12:16;;;;;;;330.80;303.75;;;;;;;18.43;27.26;93703.25;5053897;28;20076;-68
2022/04/18 08:14:41;;;;;;;326.25;299.40;;;;;;;18.44;27.29;93707.47;5041132;28;20137;-68
2022/04/18 08:17:08;;;;;;;331.33;304.70;;;;;;;18.43;27.30;93706.72;5059102;28;20669;-67
2022/04/18 08:19:35;;;;;;;316.80;290.55;;;;;;;18.47;27.35;93706.53;5059857;28;20055;-67
2022/04/18 08:22:02;;;;;;;325.02;298.00;;;;;;;18.53;27.34;93704.69;5058643;28;20040;-68
2022/04/18 08:24:28;;;;;;;325.88;299.17;;;;;;;18.49;27.34;93706.81;5060694;28;20049;-67
2022/04/18 08:26:54;;;;;;;330.88;303.67;;;;;;;18.52;27.58;93702.44;5060814;28;20059;-68
2022/04/18 08:29:22;;;;;;;327.88;300.88;;;;;;;18.53;27.42;93699.28;5056504;28;20140;-68
2022/04/18 08:31:48;;;;;;;327.15;300.50;;;;;;;18.51;27.46;93711.78;5060695;28;20063;-68
2022/04/18 08:34:16;;;;;;;333.13;305.75;;;;;;;18.52;27.40;93711.31;5056770;28;20518;-67
2022/04/18 08:36:42;;;;;;;331.77;304.55;;;;;;;18.42;27.34;93705.22;5060494;28;20475;-68
2022/04/18 08:39:08;;;;;;;336.13;307.83;;;;;;;18.33;27.40;93710.69;5057833;28;20044;-67
2022/04/18 08:41:38;;;;;;;321.33;294.98;;;;;;;18.27;27.10;93707.13;5059153;28;20051;-68
2022/04/18 08:44:04;;;;;;;335.02;307.05;;;;;;;18.28;27.09;93710.59;5058612;28;20045;-68
2022/04/18 08:46:31;;;;;;;331.75;304.08;;;;;;;18.21;27.29;93698.16;5055935;28;20064;-68
2022/04/18 08:54:28;;;;;;;327.90;300.35;;;;;;;18.18;27.20;93706.47;5050823;28;20830;-67
2022/04/18 08:56:55;;;;;;;323.05;296.33;;;;;;;18.16;26.86;93704.22;5059087;28;20044;-67
2022/04/18 08:59:21;;;;;;;366.10;334.30;;;;;;;18.15;26.60;93699.28;5046751;28;20045;-67
2022/04/18 09:01:50;;;;;;;371.42;338.67;;;;;;;18.12;26.83;93705.63;5033836;28;20042;-67
2022/04/18 09:04:20;;;;;;;337.98;308.98;;;;;;;17.34;27.35;93704.66;5037544;28;20057;-67
2022/04/18 09:06:45;;;;;;;336.83;307.85;;;;;;;17.74;26.99;93696.97;5037106;28;20048;-67
2022/04/18 09:09:11;;;;;;;350.98;320.70;;;;;;;17.92;26.70;93706.94;5016861;28;20106;-68
2022/04/18 09:11:37;;;;;;;335.92;307.33;;;;;;;17.97;26.28;93708.25;5041780;28;20216;-68
2022/04/18 09:14:04;;;;;;;341.75;312.70;;;;;;;17.97;26.67;93702.84;5040041;28;20106;-68
2022/04/18 09:16:30;;;;;;;341.25;311.95;;;;;;;17.96;26.66;93699.41;5042981;28;20488;-68
2022/04/18 09:19:05;;;;;;;333.65;305.15;;;;;;;17.63;26.75;93702.09;5039255;28;20100;-66
2022/04/18 09:21:32;;;;;;;265.13;240.15;;;;;;;16.35;27.73;93707.06;5024922;28;20044;-65
2022/04/18 09:23:58;;;;;;;323.70;294.45;;;;;;;15.84;29.04;93709.56;5040283;28;20120;-66
2022/04/18 09:26:24;;;;;;;349.73;318.85;;;;;;;16.41;29.65;93694.47;5040940;28;20056;-67
2022/04/18 09:28:50;;;;;;;336.20;306.88;;;;;;;17.17;27.52;93698.09;5038940;28;20034;-67
2022/04/18 09:31:18;;;;;;;355.15;323.75;;;;;;;17.26;27.03;93701.53;5040781;28;21184;-68
2022/04/18 09:33:56;;;;;;;325.13;296.40;;;;;;;17.52;26.67;93698.44;5041894;28;20108;-68
2022/04/18 09:36:23;;;;;;;323.45;294.65;;;;;;;17.64;26.58;93692.03;5042148;28;20675;-68
2022/04/18 09:38:51;;;;;;;316.70;288.77;;;;;;;17.70;26.61;93692.94;5043329;28;20523;-67
2022/04/18 09:41:31;;;;;;;318.27;290.05;;;;;;;17.74;26.62;93685.41;5040107;28;20568;-67
2022/04/18 09:43:58;;;;;;;313.20;285.70;;;;;;;17.73;26.52;93692.00;5035344;28;20049;-68
2022/04/18 09:46:25;;;;;;;324.23;295.55;;;;;;;17.72;26.55;93690.50;5038085;28;20384;-68
2022/04/18 09:48:51;;;;;;;328.38;299.33;;;;;;;17.81;26.58;93695.88;5025574;28;20139;-68
2022/04/18 09:51:29;;;;;;;329.77;302.00;;;;;;;17.78;26.37;93686.72;5041530;28;20052;-68
2022/04/18 09:53:57;;;;;;;323.58;296.17;;;;;;;17.78;26.54;93692.13;5049263;28;20092;-67
2022/04/18 09:56:23;;;;;;;331.98;303.10;;;;;;;17.84;26.47;93686.09;5045408;28;20057;-68
2022/04/18 09:58:49;;;;;;;322.50;294.98;;;;;;;17.77;26.33;93687.19;5047632;28;20076;-68
2022/04/18 10:01:18;;;;;;;337.63;309.27;;;;;;;17.66;26.12;93682.28;5050418;28;20238;-67
2022/04/18 10:03:46;;;;;;;358.00;326.75;;;;;;;17.72;26.48;93679.69;5040521;28;20151;-68
2022/04/18 10:06:12;;;;;;;345.10;316.83;;;;;;;17.86;26.58;93681.72;5052986;28;20098;-68
2022/04/18 10:08:38;;;;;;;325.27;296.83;;;;;;;17.93;26.52;93672.50;5047410;28;20056;-68
2022/04/18 10:11:08;;;;;;;339.58;311.10;;;;;;;17.91;26.40;93672.97;5039177;28;20049;-67
2022/04/18 10:13:35;;;;;;;342.42;313.95;;;;;;;17.81;26.11;93671.53;5039716;28;20051;-68
2022/04/18 10:16:02;;;;;;;360.75;329.88;;;;;;;17.74;26.29;93675.31;5037432;28;20147;-68
2022/04/18 10:18:28;;;;;;;378.80;346.35;;;;;;;17.78;26.39;93670.50;5035349;28;20044;-70
2022/04/18 10:21:13;;;;;;;344.05;314.92;;;;;;;17.91;26.37;93664.09;5039785;28;20067;-67
2022/04/18 10:23:57;;;;;;;356.83;326.25;;;;;;;17.94;26.37;93666.63;5034350;28;20041;-69
2022/04/18 10:26:52;;;;;;;328.75;300.25;;;;;;;17.94;26.28;93655.81;5036785;28;20045;-68
2022/04/18 10:29:32;;;;;;;361.98;331.00;;;;;;;17.92;26.35;93658.25;5033797;28;20044;-64
2022/04/18 10:32:03;;;;;;;353.33;323.75;;;;;;;17.96;26.33;93658.81;5041900;28;20041;-66
2022/04/18 10:34:31;;;;;;;336.65;307.35;;;;;;;17.94;26.39;93653.13;5018495;28;20098;-68
2022/04/18 10:36:59;;;;;;;342.20;313.77;;;;;;;17.90;26.19;93647.13;5034722;28;20053;-68
2022/04/18 10:39:35;;;;;;;356.75;327.15;;;;;;;17.91;26.33;93648.63;5018041;28;20076;-68
2022/04/18 10:42:22;;;;;;;362.15;331.67;;;;;;;17.93;26.19;93653.56;5032930;28;20037;-66
2022/04/18 10:44:59;;;;;;;359.92;329.38;;;;;;;17.97;26.46;93646.78;5037955;28;20057;-69
2022/04/18 10:47:25;;;;;;;382.45;350.77;;;;;;;17.97;26.30;93646.03;5033713;28;20162;-69
2022/04/18 10:50:15;;;;;;;356.67;326.90;;;;;;;17.94;26.34;93655.81;5039598;28;20036;-67
2022/04/18 10:52:41;;;;;;;361.83;332.15;;;;;;;17.92;26.32;93639.31;5049903;28;20044;-71
2022/04/18 10:55:18;;;;;;;409.38;375.40;;;;;;;17.90;26.29;93633.59;5048398;28;20044;-66
2022/04/18 10:57:43;;;;;;;431.50;396.45;;;;;;;17.92;26.25;93642.00;5050440;28;20481;-68
2022/04/18 11:00:09;;;;;;;361.67;331.27;;;;;;;17.92;26.49;93633.88;5044121;28;20106;-70
2022/04/18 11:02:44;;;;;;;351.08;322.85;;;;;;;17.97;26.20;93630.56;5045459;28;20049;-69
2022/04/18 11:05:09;;;;;;;369.55;337.85;;;;;;;18.03;26.08;93634.13;5034663;28;20372;-69
2022/04/18 11:07:39;;;;;;;367.67;338.17;;;;;;;17.98;26.22;93632.03;5036271;28;20037;-69
2022/04/18 11:10:23;;;;;;;354.90;323.77;;;;;;;17.92;25.98;93630.44;5032185;28;20151;-68
2022/04/18 11:12:57;;;;;;;359.33;328.50;;;;;;;17.91;25.97;93624.28;5037781;28;20044;-68
2022/04/18 11:15:22;;;;;;;363.70;332.52;;;;;;;17.90;25.85;93624.75;5037599;28;20135;-70
2022/04/18 11:17:48;;;;;;;355.73;326.77;;;;;;;17.89;25.93;93625.94;5041924;28;20044;-74
2022/04/18 11:20:33;;;;;;;370.55;339.02;;;;;;;18.01;25.94;93623.00;5039060;28;20465;-75
2022/04/18 11:23:17;;;;;;;366.77;336.40;;;;;;;18.02;25.85;93621.78;5036441;28;20048;-75
2022/04/18 11:26:03;;;;;;;376.02;344.92;;;;;;;18.02;26.05;93612.94;5034665;28;20035;-70
2022/04/18 11:28:39;;;;;;;362.02;331.10;;;;;;;18.00;25.85;93616.09;5016921;28;20070;-68